Time;durP1;ratioP1;P1;durP2;ratioP2;P2;SDS_P1;SDS_P2;PMS_P1;PMS_P2;Temp;Humidity;BMP_temperature;BMP_pressure;BME280_temperature;BME280_humidity;BME280_pressure;Samples;Min_cycle;Max_cycle;Signal;HPM_P1;HPM_P2
2022/02/12 00:02:11;;;;;;;;;;;1.70;1.00;;;;;;5033832;28;19921;-84
2022/02/12 00:04:37;;;;;;;;;;;1.60;1.00;;;;;;5032916;28;19913;-83
2022/02/12 00:07:03;;;;;;;;;;;1.60;1.00;;;;;;5043039;28;19928;-83
2022/02/12 00:09:28;;;;;;;;;;;1.60;1.00;;;;;;5042454;28;20381;-83
2022/02/12 00:11:54;;;;;;;;;;;1.50;1.00;;;;;;5032464;28;20018;-83
2022/02/12 00:14:19;;;;;;;;;;;1.50;1.00;;;;;;5033311;28;19988;-83
2022/02/12 00:16:45;;;;;;;;;;;1.50;1.00;;;;;;5032072;28;19917;-83
2022/02/12 00:19:10;;;;;;;;;;;1.50;1.00;;;;;;5031822;28;19917;-83
2022/02/12 00:21:36;;;;;;;;;;;1.40;1.00;;;;;;5032756;28;20300;-83
2022/02/12 00:24:02;;;;;;;;;;;1.40;1.00;;;;;;5031849;28;20004;-83
2022/02/12 00:26:27;;;;;;;;;;;1.40;1.00;;;;;;5031892;28;19973;-83
2022/02/12 00:28:52;;;;;;;;;;;1.40;1.00;;;;;;5032276;28;19921;-83
2022/02/12 00:31:18;;;;;;;;;;;1.40;1.00;;;;;;5033430;28;19920;-83
2022/02/12 00:33:43;;;;;;;;;;;1.40;1.00;;;;;;5037193;28;20062;-83
2022/02/12 00:36:09;;;;;;;;;;;1.30;1.00;;;;;;5033072;28;19920;-83
2022/02/12 00:38:34;;;;;;;;;;;1.30;1.00;;;;;;5033233;28;19913;-83
2022/02/12 00:41:00;;;;;;;;;;;1.30;1.00;;;;;;5045111;28;19913;-83
2022/02/12 00:43:25;;;;;;;;;;;1.30;1.00;;;;;;5031095;28;20423;-83
2022/02/12 00:45:51;;;;;;;;;;;1.30;1.00;;;;;;5029971;28;19939;-83
2022/02/12 00:48:16;;;;;;;;;;;1.30;1.00;;;;;;5036655;28;19917;-82
2022/02/12 00:50:42;;;;;;;;;;;1.30;1.00;;;;;;5033579;28;20015;-83
2022/02/12 00:53:07;;;;;;;;;;;1.30;1.00;;;;;;5023693;28;19920;-82
2022/02/12 00:55:32;;;;;;;;;;;1.30;1.00;;;;;;5033132;28;19917;-83
2022/02/12 00:57:58;;;;;;;;;;;1.30;1.00;;;;;;5021991;28;19917;-84
2022/02/12 01:00:24;;;;;;;;;;;1.20;1.00;;;;;;5035109;28;20285;-83
2022/02/12 01:02:50;;;;;;;;;;;1.20;1.00;;;;;;5036043;28;20285;-84
2022/02/12 01:05:15;;;;;;;;;;;1.20;1.00;;;;;;5036163;28;19935;-83
2022/02/12 01:07:41;;;;;;;;;;;1.20;1.00;;;;;;5035404;28;20007;-83
2022/02/12 01:10:07;;;;;;;;;;;1.20;1.00;;;;;;5036311;28;20313;-83
2022/02/12 01:12:33;;;;;;;;;;;1.20;1.00;;;;;;5032457;28;19909;-83
2022/02/12 01:14:58;;;;;;;;;;;1.20;1.00;;;;;;5036101;28;20469;-83
2022/02/12 01:17:25;;;;;;;;;;;1.20;1.00;;;;;;5035269;28;19909;-84
2022/02/12 01:19:52;;;;;;;;;;;1.20;1.00;;;;;;5035160;28;19913;-83
2022/02/12 01:22:18;;;;;;;;;;;1.20;1.00;;;;;;5035750;28;19936;-83
2022/02/12 01:24:43;;;;;;;;;;;1.20;1.00;;;;;;5035568;28;19917;-84
2022/02/12 01:27:09;;;;;;;;;;;1.10;1.00;;;;;;5036168;28;19909;-83
2022/02/12 01:29:34;;;;;;;;;;;1.20;1.00;;;;;;5036082;28;19947;-83
2022/02/12 01:32:04;;;;;;;;;;;1.10;1.00;;;;;;5036114;28;19909;-83
2022/02/12 01:34:31;;;;;;;;;;;1.10;1.00;;;;;;5034396;28;19978;-82
2022/02/12 01:36:56;;;;;;;;;;;1.10;1.00;;;;;;5036289;28;19917;-83
2022/02/12 01:39:22;;;;;;;;;;;1.10;1.00;;;;;;5035167;28;20020;-83
2022/02/12 01:41:47;;;;;;;;;;;1.00;1.00;;;;;;5035895;28;19909;-84
2022/02/12 01:44:12;;;;;;;;;;;1.00;1.00;;;;;;5033287;28;19974;-84
2022/02/12 01:46:38;;;;;;;;;;;1.00;1.00;;;;;;5034256;28;19988;-83
2022/02/12 01:49:03;;;;;;;;;;;1.00;1.00;;;;;;5035035;28;20370;-83
2022/02/12 01:51:29;;;;;;;;;;;1.00;1.00;;;;;;5034730;28;19913;-83
2022/02/12 01:53:55;;;;;;;;;;;0.90;1.00;;;;;;5035539;28;19919;-83
2022/02/12 01:56:20;;;;;;;;;;;0.90;1.00;;;;;;5034138;28;19913;-83
2022/02/12 01:58:46;;;;;;;;;;;0.90;1.00;;;;;;5022647;28;20281;-84
2022/02/12 02:01:13;;;;;;;;;;;0.90;1.00;;;;;;5033322;28;19919;-84
2022/02/12 02:03:39;;;;;;;;;;;0.90;1.00;;;;;;5033561;28;19924;-84
2022/02/12 02:06:05;;;;;;;;;;;0.90;1.00;;;;;;5031315;28;19913;-83
2022/02/12 02:08:30;;;;;;;;;;;0.90;1.00;;;;;;5029155;28;19921;-84
2022/02/12 02:10:56;;;;;;;;;;;0.80;1.00;;;;;;5030143;28;20008;-84
2022/02/12 02:13:23;;;;;;;;;;;0.80;1.00;;;;;;5028491;28;20404;-83
2022/02/12 02:15:48;;;;;;;;;;;0.80;1.00;;;;;;5029411;28;20012;-83
2022/02/12 02:18:14;;;;;;;;;;;0.80;1.00;;;;;;5025654;28;20301;-84
2022/02/12 02:20:40;;;;;;;;;;;0.80;1.00;;;;;;5029486;28;19920;-83
2022/02/12 02:23:05;;;;;;;;;;;0.70;1.00;;;;;;5025364;28;19944;-84
2022/02/12 02:25:31;;;;;;;;;;;0.70;1.00;;;;;;5027285;28;19926;-83
2022/02/12 02:27:56;;;;;;;;;;;0.70;1.00;;;;;;5026594;28;19967;-83
2022/02/12 02:30:22;;;;;;;;;;;0.70;1.00;;;;;;5046427;28;19920;-84
2022/02/12 02:32:47;;;;;;;;;;;0.70;1.00;;;;;;5026133;28;19999;-83
2022/02/12 02:35:15;;;;;;;;;;;0.70;1.00;;;;;;5025349;28;19914;-82
2022/02/12 02:37:42;;;;;;;;;;;0.70;1.00;;;;;;5030453;28;19917;-84
2022/02/12 02:40:12;;;;;;;;;;;0.60;1.00;;;;;;5029563;28;19913;-83
2022/02/12 02:42:38;;;;;;;;;;;0.60;1.00;;;;;;5025517;28;20087;-83
2022/02/12 02:45:06;;;;;;;;;;;0.60;1.00;;;;;;5028476;28;19939;-83
2022/02/12 02:47:40;;;;;;;;;;;0.60;1.00;;;;;;5027592;28;20383;-84
2022/02/12 02:55:59;;;;;;;;;;;0.60;1.00;;;;;;5024892;28;20309;-84
2022/02/12 02:58:21;;;;;;;;;;;0.50;1.00;;;;;;5027418;28;20008;-84
2022/02/12 03:00:46;;;;;;;;;;;0.50;1.00;;;;;;5027396;28;19995;-84
2022/02/12 03:03:11;;;;;;;;;;;0.50;1.00;;;;;;5032310;28;19920;-82
2022/02/12 03:05:37;;;;;;;;;;;0.60;1.00;;;;;;5026531;28;19917;-83
2022/02/12 03:08:02;;;;;;;;;;;0.60;1.00;;;;;;5025197;28;19968;-83
2022/02/12 03:10:28;;;;;;;;;;;0.50;1.00;;;;;;5026208;28;19917;-83
2022/02/12 03:12:53;;;;;;;;;;;0.50;1.00;;;;;;5028110;28;19913;-82
2022/02/12 03:15:19;;;;;;;;;;;0.60;1.00;;;;;;5031579;28;19967;-83
2022/02/12 03:17:44;;;;;;;;;;;0.50;1.00;;;;;;5031102;28;20054;-83
2022/02/12 03:20:10;;;;;;;;;;;0.50;1.00;;;;;;5043026;28;19913;-82
2022/02/12 03:22:35;;;;;;;;;;;0.60;1.00;;;;;;5033174;28;20008;-83
2022/02/12 03:25:01;;;;;;;;;;;0.50;1.00;;;;;;5026216;28;19971;-83
2022/02/12 03:27:26;;;;;;;;;;;0.50;1.00;;;;;;5041635;28;19921;-82
2022/02/12 03:29:52;;;;;;;;;;;0.50;1.00;;;;;;5028372;28;20172;-83
2022/02/12 03:32:17;;;;;;;;;;;0.50;1.00;;;;;;5026711;28;19967;-84
2022/02/12 03:34:43;;;;;;;;;;;0.40;1.00;;;;;;5043760;28;19924;-83
2022/02/12 03:37:09;;;;;;;;;;;0.40;1.00;;;;;;5027681;28;19913;-83
2022/02/12 03:39:34;;;;;;;;;;;0.40;1.00;;;;;;5029711;28;19917;-83
2022/02/12 03:42:00;;;;;;;;;;;0.40;1.00;;;;;;5028654;28;19913;-83
2022/02/12 03:44:25;;;;;;;;;;;0.40;1.00;;;;;;5022719;28;19972;-83
2022/02/12 03:46:51;;;;;;;;;;;0.40;1.00;;;;;;5027940;28;19913;-84
2022/02/12 03:49:16;;;;;;;;;;;0.40;49.20;;;;;;5022346;28;19913;-83
2022/02/12 03:51:41;;;;;;;;;;;0.40;99.90;;;;;;5026388;28;19921;-83
2022/02/12 03:54:07;;;;;;;;;;;0.30;99.90;;;;;;5023880;28;20051;-83
2022/02/12 03:56:32;;;;;;;;;;;0.30;1.00;;;;;;5027628;28;19921;-83
2022/02/12 03:58:58;;;;;;;;;;;0.30;1.00;;;;;;5023249;28;20008;-84
2022/02/12 04:01:23;;;;;;;;;;;0.30;1.00;;;;;;5025296;28;19995;-84
2022/02/12 04:03:49;;;;;;;;;;;0.30;1.00;;;;;;5026698;28;19913;-83
2022/02/12 04:06:15;;;;;;;;;;;0.20;1.00;;;;;;5024280;28;19989;-83
2022/02/12 04:08:40;;;;;;;;;;;0.30;1.00;;;;;;5024265;28;19925;-83
2022/02/12 04:11:06;;;;;;;;;;;0.30;1.00;;;;;;5026407;28;20373;-82
2022/02/12 04:13:34;;;;;;;;;;;0.20;1.00;;;;;;5022399;28;19956;-82
2022/02/12 04:15:59;;;;;;;;;;;0.20;1.00;;;;;;5025315;28;20524;-83
2022/02/12 04:18:24;;;;;;;;;;;0.20;1.00;;;;;;5024326;28;19920;-83
2022/02/12 04:20:50;;;;;;;;;;;0.20;1.00;;;;;;5030217;28;19956;-82
2022/02/12 04:23:15;;;;;;;;;;;0.20;1.00;;;;;;5026706;28;19934;-82
2022/02/12 04:25:41;;;;;;;;;;;0.20;1.00;;;;;;5026776;28;19984;-84
2022/02/12 04:28:07;;;;;;;;;;;0.20;27.10;;;;;;5023652;28;19982;-84
2022/02/12 04:30:35;;;;;;;;;;;0.20;1.00;;;;;;5028299;28;19921;-83
2022/02/12 04:33:01;;;;;;;;;;;0.20;1.00;;;;;;5027693;28;19920;-84
2022/02/12 04:35:26;;;;;;;;;;;0.20;67.50;;;;;;5021981;28;19909;-84
2022/02/12 04:37:52;;;;;;;;;;;0.20;99.90;;;;;;5044510;28;20400;-85
2022/02/12 04:40:17;;;;;;;;;;;0.20;99.90;;;;;;5020403;28;19910;-82
2022/02/12 04:42:43;;;;;;;;;;;0.20;99.90;;;;;;5022215;28;19963;-85
2022/02/12 04:45:09;;;;;;;;;;;0.20;99.90;;;;;;5021922;28;19917;-84
2022/02/12 04:47:36;;;;;;;;;;;0.20;99.90;;;;;;5024497;28;19976;-84
2022/02/12 04:50:03;;;;;;;;;;;0.20;99.90;;;;;;5030097;28;20107;-84
2022/02/12 04:52:29;;;;;;;;;;;0.20;99.90;;;;;;5023827;28;20408;-84
2022/02/12 04:54:54;;;;;;;;;;;0.20;99.90;;;;;;5026889;28;19917;-84
2022/02/12 04:57:19;;;;;;;;;;;0.20;99.90;;;;;;5024245;28;20381;-83
2022/02/12 04:59:45;;;;;;;;;;;0.20;99.90;;;;;;5025592;28;19913;-84
2022/02/12 05:02:10;;;;;;;;;;;0.20;99.90;;;;;;5022253;28;19913;-83
2022/02/12 05:04:36;;;;;;;;;;;0.20;99.90;;;;;;5021096;28;20008;-84
2022/02/12 05:07:01;;;;;;;;;;;0.10;99.90;;;;;;5026444;28;19913;-84
2022/02/12 05:09:27;;;;;;;;;;;0.10;1.00;;;;;;5023946;28;20004;-83
2022/02/12 05:11:54;;;;;;;;;;;0.00;50.30;;;;;;5039483;28;19924;-84
2022/02/12 05:14:19;;;;;;;;;;;0.00;1.00;;;;;;5020763;28;20020;-83
2022/02/12 05:16:45;;;;;;;;;;;0.00;99.90;;;;;;5044307;28;20017;-84
2022/02/12 05:19:11;;;;;;;;;;;0.00;99.90;;;;;;5027552;28;21206;-84
2022/02/12 05:21:36;;;;;;;;;;;0.00;99.90;;;;;;5028478;28;19920;-84
2022/02/12 05:24:02;;;;;;;;;;;0.00;99.90;;;;;;5031669;28;19916;-83
2022/02/12 05:26:28;;;;;;;;;;;-0.10;99.90;;;;;;5042093;28;19912;-84
2022/02/12 05:28:53;;;;;;;;;;;-0.10;1.00;;;;;;5027294;28;20432;-84
2022/02/12 05:31:19;;;;;;;;;;;-0.10;1.00;;;;;;5029623;28;19992;-84
2022/02/12 05:33:44;;;;;;;;;;;-0.10;1.00;;;;;;5025795;28;19913;-83
2022/02/12 05:36:11;;;;;;;;;;;-0.10;1.00;;;;;;5026285;28;19932;-84
2022/02/12 05:38:39;;;;;;;;;;;-0.10;99.90;;;;;;5036363;28;19947;-84
2022/02/12 05:41:14;;;;;;;;;;;-0.10;99.90;;;;;;5035509;28;20436;-84
2022/02/12 05:43:40;;;;;;;;;;;-0.20;99.90;;;;;;5036030;28;19916;-84
2022/02/12 05:46:06;;;;;;;;;;;-0.20;1.00;;;;;;5032180;28;20334;-83
2022/02/12 05:48:32;;;;;;;;;;;-0.20;10.90;;;;;;5030657;28;19956;-84
2022/02/12 05:50:58;;;;;;;;;;;-0.20;52.10;;;;;;5034823;28;19913;-83
2022/02/12 05:53:23;;;;;;;;;;;-0.20;1.00;;;;;;5036175;28;19913;-84
2022/02/12 05:55:49;;;;;;;;;;;-0.10;1.00;;;;;;5034447;28;20297;-84
2022/02/12 05:58:14;;;;;;;;;;;-0.10;99.90;;;;;;5035026;28;19941;-84
2022/02/12 06:00:40;;;;;;;;;;;-0.10;1.00;;;;;;5034477;28;19914;-84
2022/02/12 06:03:06;;;;;;;;;;;-0.10;1.00;;;;;;5034923;28;19909;-84
2022/02/12 06:05:31;;;;;;;;;;;-0.10;99.90;;;;;;5034932;28;19924;-84
2022/02/12 06:07:59;;;;;;;;;;;-0.10;80.60;;;;;;5048902;28;20362;-83
2022/02/12 06:10:26;;;;;;;;;;;-0.10;33.90;;;;;;5030885;28;20285;-84
2022/02/12 06:12:51;;;;;;;;;;;-0.10;1.00;;;;;;5029773;28;20381;-84
2022/02/12 06:15:17;;;;;;;;;;;-0.10;1.00;;;;;;5033694;28;19968;-83
2022/02/12 06:17:43;;;;;;;;;;;-0.10;1.00;;;;;;5034118;28;20471;-84
2022/02/12 06:20:08;;;;;;;;;;;-0.10;1.00;;;;;;5035861;28;19917;-83
2022/02/12 06:22:34;;;;;;;;;;;-0.10;99.90;;;;;;5035072;28;20006;-83
2022/02/12 06:25:00;;;;;;;;;;;-0.10;99.90;;;;;;5035856;28;20350;-84
2022/02/12 06:27:25;;;;;;;;;;;-0.20;99.90;;;;;;5031693;28;19914;-84
2022/02/12 06:30:04;;;;;;;;;;;-0.20;99.90;;;;;;5026922;28;19913;-84
2022/02/12 06:32:30;;;;;;;;;;;-0.20;99.90;;;;;;5056587;28;19944;-84
2022/02/12 06:34:59;;;;;;;;;;;-0.20;99.90;;;;;;5040144;28;19936;-85
2022/02/12 06:37:25;;;;;;;;;;;-0.20;99.90;;;;;;5031454;28;19921;-84
2022/02/12 06:39:50;;;;;;;;;;;-0.20;1.00;;;;;;5029560;28;20293;-84
2022/02/12 06:42:16;;;;;;;;;;;-0.10;99.90;;;;;;5036238;28;19958;-83
2022/02/12 06:44:42;;;;;;;;;;;0.00;99.90;;;;;;5038991;28;19940;-84
2022/02/12 06:47:08;;;;;;;;;;;0.20;1.00;;;;;;5032704;28;20378;-84
2022/02/12 06:49:33;;;;;;;;;;;0.30;99.90;;;;;;5039741;28;19913;-83
2022/02/12 06:52:01;;;;;;;;;;;0.40;36.10;;;;;;5038366;28;19921;-84
2022/02/12 06:54:27;;;;;;;;;;;0.40;1.00;;;;;;5032719;28;19909;-83
2022/02/12 06:56:58;;;;;;;;;;;0.50;1.00;;;;;;5038027;28;20296;-83
2022/02/12 06:59:24;;;;;;;;;;;0.60;99.90;;;;;;5034183;28;19993;-83
2022/02/12 07:01:49;;;;;;;;;;;0.60;99.90;;;;;;5039743;28;19918;-84
2022/02/12 07:04:15;;;;;;;;;;;0.70;1.00;;;;;;5042654;28;19910;-84
2022/02/12 07:06:40;;;;;;;;;;;0.80;1.00;;;;;;5028686;28;19921;-84
2022/02/12 07:09:06;;;;;;;;;;;0.90;1.00;;;;;;5034532;28;20475;-84
2022/02/12 07:11:32;;;;;;;;;;;1.10;99.90;;;;;;5031086;28;20144;-84
2022/02/12 07:13:58;;;;;;;;;;;1.30;99.90;;;;;;5032390;28;19982;-84
2022/02/12 07:16:23;;;;;;;;;;;1.40;99.90;;;;;;5025695;28;19948;-83
2022/02/12 07:18:49;;;;;;;;;;;1.50;86.10;;;;;;5026918;28;19947;-83
2022/02/12 07:21:15;;;;;;;;;;;1.70;1.00;;;;;;5028092;28;19909;-84
2022/02/12 07:23:41;;;;;;;;;;;1.90;1.00;;;;;;5025584;28;19929;-83
2022/02/12 07:26:10;;;;;;;;;;;2.00;1.00;;;;;;5033823;28;19913;-84
2022/02/12 07:28:44;;;;;;;;;;;2.20;99.90;;;;;;5032710;28;19917;-84
2022/02/12 07:31:11;;;;;;;;;;;2.30;99.90;;;;;;5036172;28;19917;-85
2022/02/12 07:33:43;;;;;;;;;;;2.50;99.90;;;;;;5029322;28;19910;-84
2022/02/12 07:36:11;;;;;;;;;;;3.10;99.90;;;;;;5029854;28;19913;-84
2022/02/12 07:38:37;;;;;;;;;;;3.70;1.00;;;;;;5028131;28;19933;-83
2022/02/12 07:41:02;;;;;;;;;;;4.00;1.00;;;;;;5028580;28;20021;-84
2022/02/12 07:43:28;;;;;;;;;;;4.20;1.00;;;;;;5024782;28;19956;-82
2022/02/12 07:45:56;;;;;;;;;;;4.20;1.00;;;;;;5032440;28;19917;-84
2022/02/12 07:48:23;;;;;;;;;;;4.20;1.00;;;;;;5028427;28;19921;-84
2022/02/12 07:50:49;;;;;;;;;;;4.10;1.00;;;;;;5027078;28;20204;-84
2022/02/12 07:53:14;;;;;;;;;;;4.00;1.00;;;;;;5034907;28;19914;-84
2022/02/12 07:55:40;;;;;;;;;;;4.00;1.00;;;;;;5047337;28;19972;-83
2022/02/12 07:58:06;;;;;;;;;;;4.10;1.00;;;;;;5026817;28;19949;-84
2022/02/12 08:00:33;;;;;;;;;;;4.10;1.00;;;;;;5027925;28;19917;-82
2022/02/12 08:02:59;;;;;;;;;;;4.20;1.00;;;;;;5023406;28;19920;-85
2022/02/12 08:05:25;;;;;;;;;;;4.20;1.00;;;;;;5028548;28;19917;-84
2022/02/12 08:07:50;;;;;;;;;;;4.30;1.00;;;;;;5028660;28;20051;-83
2022/02/12 08:13:01;;;;;;;;;;;4.70;1.00;;;;;;5028420;28;19920;-85
2022/02/12 08:15:28;;;;;;;;;;;5.00;1.00;;;;;;5026356;28;19913;-83
2022/02/12 08:17:54;;;;;;;;;;;5.30;1.00;;;;;;5032975;28;19924;-84
2022/02/12 08:20:20;;;;;;;;;;;5.40;1.00;;;;;;5027180;28;19941;-84
2022/02/12 08:22:45;;;;;;;;;;;5.60;1.00;;;;;;5026739;28;19913;-83
2022/02/12 08:25:11;;;;;;;;;;;5.80;1.00;;;;;;5032505;28;19976;-85
2022/02/12 08:27:37;;;;;;;;;;;6.00;1.00;;;;;;5030704;28;19940;-85
2022/02/12 08:30:03;;;;;;;;;;;6.20;1.00;;;;;;5033332;28;20004;-84
2022/02/12 08:32:28;;;;;;;;;;;6.10;1.00;;;;;;5032241;28;19921;-84
2022/02/12 08:34:54;;;;;;;;;;;6.20;1.00;;;;;;5031146;28;19933;-86
2022/02/12 08:37:20;;;;;;;;;;;6.30;1.00;;;;;;5031206;28;20004;-86
2022/02/12 08:39:47;;;;;;;;;;;6.40;1.00;;;;;;5028169;28;20301;-83
2022/02/12 08:42:12;;;;;;;;;;;6.30;1.00;;;;;;5025476;28;19921;-86
2022/02/12 08:44:39;;;;;;;;;;;6.40;1.00;;;;;;5030638;28;19964;-84
2022/02/12 08:47:04;;;;;;;;;;;6.60;1.00;;;;;;5031916;28;19920;-85
2022/02/12 08:49:30;;;;;;;;;;;6.60;1.00;;;;;;5049346;28;20397;-84
2022/02/12 08:51:56;;;;;;;;;;;6.90;1.00;;;;;;5025587;28;20463;-84
2022/02/12 08:54:21;;;;;;;;;;;7.10;1.00;;;;;;5034817;28;19944;-84
2022/02/12 08:56:47;;;;;;;;;;;7.10;1.00;;;;;;5035647;28;19960;-85
2022/02/12 08:59:15;;;;;;;;;;;7.50;1.00;;;;;;5041528;28;20016;-85
2022/02/12 09:01:44;;;;;;;;;;;8.00;1.00;;;;;;5030165;28;20253;-84
2022/02/12 09:04:11;;;;;;;;;;;8.50;1.00;;;;;;5032825;28;19959;-83
2022/02/12 09:06:36;;;;;;;;;;;9.30;1.00;;;;;;5035347;28;19920;-83
2022/02/12 09:09:03;;;;;;;;;;;9.90;1.00;;;;;;5027041;28;19921;-84
2022/02/12 09:11:29;;;;;;;;;;;10.60;1.00;;;;;;5021210;28;19913;-83
2022/02/12 09:13:56;;;;;;;;;;;11.00;1.00;;;;;;5019287;28;20869;-85
2022/02/12 09:16:24;;;;;;;;;;;11.00;1.00;;;;;;5025831;28;19940;-85
2022/02/12 09:18:52;;;;;;;;;;;11.00;1.00;;;;;;5029767;28;19914;-85
2022/02/12 09:21:18;;;;;;;;;;;11.10;99.90;;;;;;5023298;28;19920;-85
2022/02/12 09:23:43;;;;;;;;;;;10.90;99.90;;;;;;5018904;28;19913;-85
2022/02/12 09:26:30;;;;;;;;;;;10.40;99.90;;;;;;5021625;28;19967;-85
2022/02/12 09:28:59;;;;;;;;;;;10.20;99.90;;;;;;5035222;28;19928;-85
2022/02/12 09:31:24;;;;;;;;;;;10.20;99.90;;;;;;5021935;28;19917;-84
2022/02/12 09:33:50;;;;;;;;;;;10.10;99.90;;;;;;5034346;28;19917;-85
2022/02/12 09:36:15;;;;;;;;;;;10.40;99.90;;;;;;5034987;28;20266;-84
2022/02/12 09:38:41;;;;;;;;;;;10.90;99.90;;;;;;5034508;28;19949;-84
2022/02/12 09:41:06;;;;;;;;;;;11.20;99.90;;;;;;5035884;28;19952;-85
2022/02/12 09:43:32;;;;;;;;;;;11.60;99.90;;;;;;5037982;28;19916;-85
2022/02/12 09:46:00;;;;;;;;;;;11.70;99.90;;;;;;5042225;28;19917;-85
2022/02/12 09:48:26;;;;;;;;;;;12.20;99.90;;;;;;5035156;28;19917;-84
2022/02/12 09:50:52;;;;;;;;;;;12.70;99.90;;;;;;5035157;28;20066;-85
2022/02/12 09:53:18;;;;;;;;;;;13.40;99.90;;;;;;5031588;28;19920;-84
2022/02/12 09:55:43;;;;;;;;;;;13.30;99.90;;;;;;5029839;28;19967;-85
2022/02/12 09:58:14;;;;;;;;;;;13.80;99.90;;;;;;5034169;28;19909;-85
2022/02/12 10:00:39;;;;;;;;;;;14.60;99.90;;;;;;5026534;28;19914;-84
2022/02/12 10:03:05;;;;;;;;;;;15.00;99.90;;;;;;5014077;28;19983;-84
2022/02/12 10:05:31;;;;;;;;;;;15.50;99.90;;;;;;5017518;28;19971;-85
2022/02/12 10:08:00;;;;;;;;;;;15.80;99.90;;;;;;5028858;28;19917;-85
2022/02/12 10:10:27;;;;;;;;;;;15.70;99.90;;;;;;5031837;28;19913;-85
2022/02/12 10:13:07;;;;;;;;;;;15.20;99.90;;;;;;5030752;28;19927;-84
2022/02/12 10:15:34;;;;;;;;;;;15.60;99.90;;;;;;5027411;28;19959;-83
2022/02/12 10:18:00;;;;;;;;;;;15.50;99.90;;;;;;5032369;28;20019;-84
2022/02/12 10:20:36;;;;;;;;;;;16.50;99.90;;;;;;5028108;28;19914;-84
2022/02/12 10:23:21;;;;;;;;;;;17.30;99.90;;;;;;5032755;28;20351;-82
2022/02/12 10:25:53;;;;;;;;;;;17.50;99.90;;;;;;5033060;28;20073;-83
2022/02/12 10:28:18;;;;;;;;;;;17.40;99.90;;;;;;5037683;28;19909;-83
2022/02/12 10:30:47;;;;;;;;;;;17.70;99.90;;;;;;5024136;28;19915;-83
2022/02/12 10:33:13;;;;;;;;;;;17.70;99.90;;;;;;5029717;28;19928;-82
2022/02/12 10:35:40;;;;;;;;;;;16.90;99.90;;;;;;5038299;28;19921;-82
2022/02/12 10:38:07;;;;;;;;;;;16.70;99.90;;;;;;5031705;28;20456;-83
2022/02/12 10:40:36;;;;;;;;;;;15.80;99.90;;;;;;5034096;28;19959;-82
2022/02/12 10:43:02;;;;;;;;;;;14.40;99.90;;;;;;5036450;28;19917;-82
2022/02/12 10:45:30;;;;;;;;;;;13.70;99.90;;;;;;5039659;28;19913;-82
2022/02/12 10:47:57;;;;;;;;;;;12.50;99.90;;;;;;5037074;28;20000;-81
2022/02/12 10:50:24;;;;;;;;;;;12.30;99.90;;;;;;5035434;28;19910;-83
2022/02/12 10:52:51;;;;;;;;;;;12.20;99.90;;;;;;5034157;28;19916;-83
2022/02/12 10:55:41;;;;;;;;;;;11.90;99.90;;;;;;5034849;28;19916;-82
2022/02/12 10:58:06;;;;;;;;;;;11.90;99.90;;;;;;5036219;28;19913;-82
2022/02/12 11:00:33;;;;;;;;;;;11.50;99.90;;;;;;5036875;28;19921;-83
2022/02/12 11:03:00;;;;;;;;;;;11.20;99.90;;;;;;5029547;28;19910;-81
2022/02/12 11:05:26;;;;;;;;;;;11.00;99.90;;;;;;5035513;28;19914;-82
2022/02/12 11:07:52;;;;;;;;;;;12.20;99.90;;;;;;5036977;28;19924;-82
2022/02/12 11:10:19;;;;;;;;;;;13.90;99.90;;;;;;5034693;28;19913;-83
2022/02/12 11:12:45;;;;;;;;;;;15.90;99.90;;;;;;5033046;28;19913;-83
2022/02/12 11:15:11;;;;;;;;;;;17.30;99.90;;;;;;5031385;28;19920;-84
2022/02/12 11:17:37;;;;;;;;;;;18.90;99.90;;;;;;5031106;28;19913;-83
2022/02/12 11:20:08;;;;;;;;;;;19.20;99.90;;;;;;5031255;28;19928;-83
2022/02/12 11:22:35;;;;;;;;;;;19.90;99.90;;;;;;5031394;28;20040;-83
2022/02/12 11:25:01;;;;;;;;;;;20.50;99.90;;;;;;5046726;28;19913;-84
2022/02/12 11:27:51;;;;;;;;;;;20.70;99.90;;;;;;5031129;28;19932;-84
2022/02/12 11:30:20;;;;;;;;;;;21.40;99.90;;;;;;5026665;28;19913;-83
2022/02/12 11:32:46;;;;;;;;;;;21.30;99.90;;;;;;5022722;28;19917;-83
2022/02/12 11:35:18;;;;;;;;;;;21.50;99.90;;;;;;5023177;28;19936;-84
2022/02/12 11:37:48;;;;;;;;;;;21.30;99.90;;;;;;5043725;28;19924;-83
2022/02/12 11:40:22;;;;;;;;;;;21.80;99.90;;;;;;5024964;28;20035;-83
2022/02/12 11:42:50;;;;;;;;;;;22.20;99.90;;;;;;5027718;28;20285;-84
2022/02/12 11:45:25;;;;;;;;;;;21.70;99.90;;;;;;5024312;28;19925;-83
2022/02/12 11:48:10;;;;;;;;;;;22.10;99.90;;;;;;5026227;28;19932;-83
2022/02/12 11:50:46;;;;;;;;;;;22.10;99.90;;;;;;5029775;28;20392;-83
2022/02/12 11:53:32;;;;;;;;;;;22.30;99.90;;;;;;5024077;28;19924;-83
2022/02/12 11:56:04;;;;;;;;;;;22.20;99.90;;;;;;5042350;28;20358;-83
2022/02/12 11:58:47;;;;;;;;;;;22.20;99.90;;;;;;5038008;28;19971;-83
2022/02/12 12:01:22;;;;;;;;;;;22.20;99.90;;;;;;5021481;28;19922;-83
2022/02/12 12:04:07;;;;;;;;;;;21.80;99.90;;;;;;5031955;28;19916;-83
2022/02/12 12:06:33;;;;;;;;;;;22.10;99.90;;;;;;5041287;28;20005;-82
2022/02/12 12:09:05;;;;;;;;;;;21.70;99.90;;;;;;5030073;28;20016;-83
2022/02/12 12:11:30;;;;;;;;;;;21.30;99.90;;;;;;5029821;28;19920;-83
2022/02/12 12:13:58;;;;;;;;;;;21.50;99.90;;;;;;5043018;28;19918;-83
2022/02/12 12:16:43;;;;;;;;;;;;;;;;;;;;;
2022/02/12 12:19:10;;;;;;;;;;;22.30;99.90;;;;;;5029901;28;19940;-83
2022/02/12 12:21:41;;;;;;;;;;;22.60;99.90;;;;;;5030122;28;20416;-83
2022/02/12 12:24:11;;;;;;;;;;;22.70;99.90;;;;;;5041661;28;19988;-84
2022/02/12 12:26:48;;;;;;;;;;;22.50;99.90;;;;;;5030796;28;19920;-83
2022/02/12 12:32:11;;;;;;;;;;;23.30;99.90;;;;;;5033378;28;19924;-83
2022/02/12 12:34:47;;;;;;;;;;;23.40;99.90;;;;;;5034021;28;19919;-84
2022/02/12 12:37:15;;;;;;;;;;;23.50;99.90;;;;;;5028664;28;20007;-83
2022/02/12 12:39:46;;;;;;;;;;;23.30;99.90;;;;;;5035737;28;20057;-83
2022/02/12 12:42:24;;;;;;;;;;;23.30;99.90;;;;;;5033505;28;19936;-83
2022/02/12 12:45:14;;;;;;;;;;;23.50;99.90;;;;;;5032485;28;19917;-84
2022/02/12 12:47:47;;;;;;;;;;;23.50;99.90;;;;;;5043289;28;19916;-83
2022/02/12 12:50:13;;;;;;;;;;;23.50;99.90;;;;;;5032709;28;19924;-83
2022/02/12 12:52:38;;;;;;;;;;;23.00;99.90;;;;;;5035508;28;20288;-83
2022/02/12 12:55:07;;;;;;;;;;;23.10;99.90;;;;;;5032527;28;19910;-83
2022/02/12 12:57:33;;;;;;;;;;;23.00;99.90;;;;;;5032942;28;19917;-83
2022/02/12 13:00:00;;;;;;;;;;;23.00;99.90;;;;;;5033867;28;19917;-83
2022/02/12 13:02:26;;;;;;;;;;;23.10;99.90;;;;;;5031996;28;19917;-83
2022/02/12 13:04:53;;;;;;;;;;;22.70;99.90;;;;;;5050835;28;19917;-83
2022/02/12 13:07:20;;;;;;;;;;;22.70;99.90;;;;;;5028776;28;19914;-83
2022/02/12 13:09:46;;;;;;;;;;;22.60;99.90;;;;;;5033614;28;19967;-83
2022/02/12 13:12:30;;;;;;;;;;;22.60;99.90;;;;;;5030866;28;19960;-83
2022/02/12 13:15:00;;;;;;;;;;;22.30;99.90;;;;;;5025337;28;20408;-83
2022/02/12 13:17:26;;;;;;;;;;;21.80;99.90;;;;;;5032887;28;19940;-84
2022/02/12 13:19:59;;;;;;;;;;;21.10;99.90;;;;;;5030560;28;19913;-84
2022/02/12 13:22:26;;;;;;;;;;;20.80;99.90;;;;;;5030876;28;20008;-83
2022/02/12 13:24:53;;;;;;;;;;;21.00;99.90;;;;;;5027386;28;19975;-83
2022/02/12 13:27:23;;;;;;;;;;;21.20;99.90;;;;;;5028440;28;20297;-83
2022/02/12 13:29:59;;;;;;;;;;;21.40;99.90;;;;;;5028609;28;19917;-82
2022/02/12 13:32:35;;;;;;;;;;;20.40;99.90;;;;;;5032942;28;19913;-83
2022/02/12 13:35:02;;;;;;;;;;;20.40;99.90;;;;;;5032350;28;19963;-83
2022/02/12 13:37:33;;;;;;;;;;;19.80;99.90;;;;;;5032190;28;19917;-83
2022/02/12 13:40:04;;;;;;;;;;;20.00;99.90;;;;;;5030616;28;19909;-83
2022/02/12 13:42:30;;;;;;;;;;;19.80;99.90;;;;;;5033134;28;19914;-83
2022/02/12 13:44:59;;;;;;;;;;;19.30;99.90;;;;;;5032383;28;19917;-83
2022/02/12 13:47:27;;;;;;;;;;;19.40;99.90;;;;;;5028125;28;19940;-84
2022/02/12 13:49:56;;;;;;;;;;;19.00;99.90;;;;;;5029773;28;20369;-83
2022/02/12 13:52:30;;;;;;;;;;;18.90;99.90;;;;;;5029863;28;19960;-83
2022/02/12 13:55:09;;;;;;;;;;;19.00;99.90;;;;;;5026439;28;19957;-83
2022/02/12 13:57:34;;;;;;;;;;;18.90;99.90;;;;;;5041595;28;20008;-83
2022/02/12 14:00:03;;;;;;;;;;;18.60;99.90;;;;;;5030851;28;19956;-83
2022/02/12 14:02:31;;;;;;;;;;;18.50;99.90;;;;;;5034037;28;19913;-84
2022/02/12 14:05:02;;;;;;;;;;;18.40;99.90;;;;;;5033661;28;19913;-83
2022/02/12 14:07:28;;;;;;;;;;;18.50;99.90;;;;;;5033512;28;19939;-83
2022/02/12 14:09:56;;;;;;;;;;;18.60;99.90;;;;;;5027560;28;19956;-83
2022/02/12 14:12:22;;;;;;;;;;;18.60;99.90;;;;;;5030676;28;19945;-83
2022/02/12 14:14:50;;;;;;;;;;;17.20;99.90;;;;;;5051639;28;19920;-84
2022/02/12 14:17:15;;;;;;;;;;;16.90;99.90;;;;;;5035142;28;19913;-83
2022/02/12 14:19:43;;;;;;;;;;;16.70;99.90;;;;;;5052603;28;20396;-83
2022/02/12 14:22:09;;;;;;;;;;;16.50;99.90;;;;;;5035200;28;19915;-84
2022/02/12 14:24:35;;;;;;;;;;;16.80;99.90;;;;;;5035612;28;20008;-84
2022/02/12 14:27:00;;;;;;;;;;;16.90;99.90;;;;;;5036978;28;19913;-84
2022/02/12 14:29:26;;;;;;;;;;;16.60;99.90;;;;;;5051381;28;19920;-82
2022/02/12 14:31:51;;;;;;;;;;;16.50;99.90;;;;;;5036825;28;19951;-83
2022/02/12 14:34:20;;;;;;;;;;;16.40;99.90;;;;;;5036924;28;20000;-82
2022/02/12 14:36:45;;;;;;;;;;;16.20;99.90;;;;;;5036370;28;19913;-83
2022/02/12 14:39:13;;;;;;;;;;;16.10;99.90;;;;;;5036284;28;19936;-83
2022/02/12 14:41:40;;;;;;;;;;;15.40;99.90;;;;;;5036244;28;19917;-83
2022/02/12 14:47:15;;;;;;;;;;;15.00;99.90;;;;;;5036403;28;20380;-84